Time;durP1;ratioP1;P1;durP2;ratioP2;P2;SDS_P1;SDS_P2;PMS_P1;PMS_P2;Temp;Humidity;BMP_temperature;BMP_pressure;BME280_temperature;BME280_humidity;BME280_pressure;Samples;Min_cycle;Max_cycle;Signal;HPM_P1;HPM_P2
2021/12/18 00:01:29;;;;;;;27.00;13.82;;;;;;;6.06;74.68;102118.94;5060647;28;20404;-81
2021/12/18 00:03:56;;;;;;;23.90;12.05;;;;;;;6.07;74.91;102106.63;5049660;28;20044;-81
2021/12/18 00:06:27;;;;;;;26.00;13.13;;;;;;;6.05;75.12;102111.94;5061416;28;20063;-81
2021/12/18 00:08:54;;;;;;;24.05;14.07;;;;;;;6.06;75.10;102104.91;5050250;28;20045;-81
2021/12/18 00:11:21;;;;;;;28.58;14.10;;;;;;;6.07;75.10;102106.63;5063704;28;20045;-81
2021/12/18 00:13:49;;;;;;;32.35;14.68;;;;;;;6.07;75.15;102098.69;5067370;28;20044;-81
2021/12/18 00:16:16;;;;;;;27.17;12.93;;;;;;;6.06;75.06;102103.13;5061293;28;20064;-81
2021/12/18 00:18:45;;;;;;;32.42;14.18;;;;;;;6.07;75.08;102109.25;5061834;28;20495;-81
2021/12/18 00:21:14;;;;;;;28.02;14.27;;;;;;;6.06;75.05;102103.13;5067192;28;20053;-81
2021/12/18 00:23:41;;;;;;;27.50;14.35;;;;;;;6.05;75.32;102103.16;5048997;28;20048;-81
2021/12/18 00:26:08;;;;;;;30.90;15.07;;;;;;;6.06;75.20;102104.91;5033723;28;20044;-81
2021/12/18 00:28:35;;;;;;;28.25;14.20;;;;;;;6.05;75.14;102111.06;5078266;28;20051;-81
2021/12/18 00:31:03;;;;;;;30.83;14.32;;;;;;;6.04;74.98;102101.44;5076216;28;20070;-81
2021/12/18 00:33:30;;;;;;;30.55;14.50;;;;;;;6.05;74.90;102103.16;5076201;28;20106;-80
2021/12/18 00:35:56;;;;;;;26.60;13.30;;;;;;;6.03;75.18;102094.44;5052844;28;20045;-81
2021/12/18 00:38:28;;;;;;;23.65;11.30;;;;;;;6.03;75.17;102100.59;5064300;28;20618;-81
2021/12/18 00:43:41;;;;;;;27.88;12.05;;;;;;;6.03;75.51;102094.44;5042657;28;20404;-81
2021/12/18 00:46:08;;;;;;;29.88;16.40;;;;;;;6.03;75.70;102086.53;5048317;28;20045;-80
2021/12/18 00:48:36;;;;;;;30.25;15.50;;;;;;;6.02;75.60;102085.66;5055850;28;20044;-81
2021/12/18 00:51:03;;;;;;;33.05;15.73;;;;;;;6.04;75.55;102098.81;5065911;28;20051;-81
2021/12/18 00:53:32;;;;;;;31.05;15.27;;;;;;;6.03;75.55;102097.06;5046862;28;20037;-81
2021/12/18 00:55:58;;;;;;;29.90;14.90;;;;;;;6.04;75.47;102101.44;5069840;28;20044;-81
2021/12/18 00:58:25;;;;;;;31.83;15.50;;;;;;;6.04;75.57;102096.19;5066973;28;20051;-81
2021/12/18 01:00:53;;;;;;;30.45;14.95;;;;;;;6.03;75.43;102090.03;5074021;28;20566;-81
2021/12/18 01:03:21;;;;;;;28.35;14.80;;;;;;;6.04;75.57;102099.66;5065186;28;20125;-81
2021/12/18 01:05:49;;;;;;;32.22;15.73;;;;;;;6.04;75.57;102102.31;5049714;28;20403;-81
2021/12/18 01:08:16;;;;;;;29.63;14.68;;;;;;;6.04;75.45;102093.53;5079231;28;20068;-81
2021/12/18 01:11:05;;;;;;;29.30;14.60;;;;;;;6.04;75.37;102089.13;5078025;28;20045;-80
2021/12/18 01:13:34;;;;;;;32.38;13.95;;;;;;;6.02;75.61;102083.03;5060954;28;20051;-80
2021/12/18 01:16:11;;;;;;;27.20;12.98;;;;;;;6.02;75.41;102083.03;5061756;28;20032;-81
2021/12/18 01:24:09;;;;;;;29.98;14.60;;;;;;;6.03;75.68;102097.06;5035043;28;20068;-81
2021/12/18 01:26:36;;;;;;;28.00;14.30;;;;;;;6.02;75.36;102084.81;5068368;28;20051;-81
2021/12/18 01:29:03;;;;;;;27.85;15.20;;;;;;;6.03;75.50;102090.03;5057544;28;20125;-81
2021/12/18 01:31:30;;;;;;;31.65;15.15;;;;;;;6.03;75.67;102094.44;5062125;28;20057;-81
2021/12/18 01:33:56;;;;;;;26.60;14.60;;;;;;;6.04;75.55;102088.25;5065773;28;20094;-81
2021/12/18 01:36:24;;;;;;;32.25;16.38;;;;;;;6.03;75.95;102094.44;5062256;28;20067;-81
2021/12/18 01:38:51;;;;;;;24.02;12.68;;;;;;;6.03;75.94;102091.78;5050877;28;20102;-81
2021/12/18 01:41:19;;;;;;;29.27;15.43;;;;;;;6.03;75.63;102090.03;5060560;28;20049;-81
2021/12/18 01:46:44;;;;;;;27.92;14.88;;;;;;;6.03;75.77;102082.13;5076660;28;20040;-81
2021/12/18 01:52:16;;;;;;;30.77;16.02;;;;;;;6.00;75.73;102099.81;5063606;28;20051;-81
2021/12/18 01:54:45;;;;;;;30.75;14.55;;;;;;;6.00;75.88;102099.81;5074568;28;20056;-81
2021/12/18 01:57:13;;;;;;;34.42;15.73;;;;;;;6.00;75.80;102103.31;5047097;28;20052;-81
2021/12/18 01:59:46;;;;;;;37.45;17.65;;;;;;;6.01;75.92;102112.09;5063497;28;20045;-81
2021/12/18 02:02:14;;;;;;;30.47;16.47;;;;;;;5.99;75.80;102098.09;5045228;28;20061;-81
2021/12/18 02:04:40;;;;;;;30.13;15.23;;;;;;;6.00;75.89;102094.53;5062221;28;20455;-81
2021/12/18 02:07:09;;;;;;;31.45;16.33;;;;;;;6.01;75.78;102098.91;5042196;28;20048;-81
2021/12/18 02:12:13;;;;;;;27.77;12.98;;;;;;;6.01;76.04;102093.66;5043065;28;20052;-80
2021/12/18 02:20:38;;;;;;;19.50;10.55;;;;;;;6.00;76.18;102090.13;5052861;28;20032;-81
2021/12/18 02:23:05;;;;;;;23.75;11.65;;;;;;;5.99;76.46;102090.19;5040453;28;20043;-81
2021/12/18 02:25:35;;;;;;;30.35;13.88;;;;;;;6.02;76.20;102095.34;5064086;28;20044;-81
2021/12/18 02:28:02;;;;;;;29.92;14.30;;;;;;;6.01;76.29;102091.88;5053657;28;20044;-81
2021/12/18 02:30:31;;;;;;;29.20;14.80;;;;;;;6.02;76.11;102095.34;5059026;28;20452;-81
2021/12/18 02:32:58;;;;;;;30.73;14.27;;;;;;;6.01;76.31;102088.38;5043242;28;20052;-81
2021/12/18 02:35:30;;;;;;;25.27;13.43;;;;;;;5.99;76.02;102096.31;5047533;28;20604;-81
2021/12/18 02:38:13;;;;;;;22.95;11.05;;;;;;;5.95;76.44;102097.31;5034430;28;20044;-81
2021/12/18 02:43:17;;;;;;;25.27;12.60;;;;;;;6.02;76.44;102108.53;5076256;28;20109;-81
2021/12/18 02:45:44;;;;;;;25.55;13.23;;;;;;;6.02;76.49;102113.81;5059857;28;20055;-81
2021/12/18 02:48:11;;;;;;;29.90;14.75;;;;;;;6.02;76.64;102103.28;5059721;28;20048;-81
2021/12/18 02:50:39;;;;;;;27.98;12.70;;;;;;;6.03;76.48;102097.06;5059343;28;20047;-81
2021/12/18 02:53:07;;;;;;;30.50;14.27;;;;;;;6.02;76.49;102101.50;5027215;28;20045;-81
2021/12/18 02:55:33;;;;;;;25.25;12.45;;;;;;;6.01;76.44;102099.78;5062678;28;20064;-81
2021/12/18 02:58:00;;;;;;;28.55;13.35;;;;;;;6.01;76.62;102094.50;5057058;28;20040;-81
2021/12/18 03:00:28;;;;;;;26.98;12.85;;;;;;;6.01;76.36;102088.38;5062241;28;20036;-81
2021/12/18 03:02:55;;;;;;;28.95;12.65;;;;;;;6.03;76.60;102078.59;5063008;28;20124;-81
2021/12/18 03:05:31;;;;;;;28.25;12.68;;;;;;;6.01;76.71;102083.94;5062353;28;20492;-81
2021/12/18 03:08:07;;;;;;;34.08;14.35;;;;;;;6.02;76.70;102090.94;5061256;28;21638;-81
2021/12/18 03:19:17;;;;;;;29.77;10.80;;;;;;;6.00;76.38;102098.03;5014003;28;20045;-81
2021/12/18 03:22:32;;;;;;;33.05;14.75;;;;;;;6.00;76.41;102097.19;5046579;28;20523;-81
2021/12/18 03:24:41;;;;;;;32.30;15.50;;;;;;;6.00;76.56;102089.25;4975569;28;20045;-81
2021/12/18 03:27:08;;;;;;;31.35;15.27;;;;;;;5.99;76.55;102098.97;5061253;28;20052;-81
2021/12/18 03:29:35;;;;;;;34.25;15.02;;;;;;;6.00;76.11;102092.75;5066377;28;20124;-81
2021/12/18 03:32:05;;;;;;;34.58;15.18;;;;;;;5.98;76.09;102096.34;5047312;28;20047;-80
2021/12/18 03:34:32;;;;;;;34.80;16.23;;;;;;;6.00;76.04;102091.91;5070650;28;20036;-81
2021/12/18 03:37:00;;;;;;;33.38;13.80;;;;;;;6.01;76.10;102093.66;5073356;28;20055;-81
2021/12/18 03:39:26;;;;;;;34.53;15.80;;;;;;;6.02;76.07;102093.56;5063770;28;20056;-81
2021/12/18 03:41:53;;;;;;;34.67;14.90;;;;;;;6.02;76.34;102092.72;5064530;28;20044;-80
2021/12/18 03:44:20;;;;;;;30.25;13.40;;;;;;;6.02;76.14;102087.44;5066065;28;20408;-81
2021/12/18 03:46:48;;;;;;;33.38;14.55;;;;;;;6.02;76.16;102090.94;5064967;28;20074;-81
2021/12/18 03:49:15;;;;;;;35.17;15.48;;;;;;;6.02;76.34;102098.84;5057056;28;20047;-81
2021/12/18 03:51:42;;;;;;;33.28;15.10;;;;;;;6.02;76.13;102084.81;5064760;28;20050;-81
2021/12/18 03:54:08;;;;;;;33.67;13.13;;;;;;;6.02;75.90;102076.91;5064554;28;20056;-81
2021/12/18 03:56:35;;;;;;;27.20;12.77;;;;;;;6.01;75.90;102076.03;5069106;28;20628;-81
2021/12/18 03:59:02;;;;;;;29.20;12.60;;;;;;;6.02;75.97;102068.97;5073188;28;20047;-81
2021/12/18 04:01:28;;;;;;;33.80;14.00;;;;;;;6.01;76.05;102070.75;5066925;28;20075;-81
2021/12/18 04:03:56;;;;;;;31.85;13.10;;;;;;;6.00;75.89;102074.28;5079487;28;20595;-81
2021/12/18 04:06:24;;;;;;;26.48;11.25;;;;;;;6.01;76.03;102073.41;5067980;28;20056;-81
2021/12/18 04:08:50;;;;;;;28.70;12.75;;;;;;;6.01;75.78;102078.69;5067043;28;20052;-81
2021/12/18 04:11:17;;;;;;;29.08;12.43;;;;;;;6.00;76.07;102074.28;5082279;28;20056;-81
2021/12/18 04:13:46;;;;;;;26.10;11.65;;;;;;;6.01;75.85;102083.09;5067100;28;20082;-81
2021/12/18 04:16:13;;;;;;;33.50;14.10;;;;;;;6.01;75.94;102069.91;5065562;28;20055;-81
2021/12/18 04:18:40;;;;;;;33.80;13.63;;;;;;;6.00;75.85;102068.16;5079852;28;20059;-80
2021/12/18 04:21:08;;;;;;;22.75;10.32;;;;;;;6.01;75.69;102072.53;5064904;28;20051;-81
2021/12/18 04:23:34;;;;;;;28.95;11.82;;;;;;;6.00;75.67;102074.28;5051074;28;20037;-81
2021/12/18 04:26:01;;;;;;;25.88;11.05;;;;;;;6.01;75.67;102072.53;5052201;28;20047;-81
2021/12/18 04:28:28;;;;;;;30.70;13.23;;;;;;;6.00;75.61;102070.81;5052395;28;20060;-81
2021/12/18 04:30:55;;;;;;;27.25;11.73;;;;;;;6.00;75.60;102074.28;5048438;28;20502;-81
2021/12/18 04:33:21;;;;;;;29.58;13.13;;;;;;;6.00;75.57;102076.06;5066210;28;20067;-81
2021/12/18 04:35:48;;;;;;;31.38;12.95;;;;;;;5.99;75.26;102069.09;5079560;28;20048;-81
2021/12/18 04:38:17;;;;;;;32.65;13.63;;;;;;;5.98;75.18;102070.88;5069766;28;20051;-81
2021/12/18 04:40:44;;;;;;;32.05;13.25;;;;;;;5.93;74.69;102079.78;5063910;28;20047;-81
2021/12/18 04:43:10;;;;;;;25.00;12.73;;;;;;;5.84;74.48;102084.47;5058761;28;20046;-81
2021/12/18 04:45:37;;;;;;;26.42;12.20;;;;;;;5.86;74.40;102081.78;5067357;28;20044;-81
2021/12/18 04:48:04;;;;;;;28.15;11.35;;;;;;;5.82;73.92;102085.44;5049348;28;20150;-81
2021/12/18 04:50:32;;;;;;;33.40;12.70;;;;;;;5.76;74.44;102077.72;5070770;28;20109;-81
2021/12/18 04:52:59;;;;;;;28.95;12.65;;;;;;;5.77;74.29;102087.34;5065034;28;23044;-81
2021/12/18 04:55:25;;;;;;;32.92;13.95;;;;;;;5.81;74.77;102081.06;5043149;28;20037;-81
2021/12/18 04:57:54;;;;;;;30.05;13.18;;;;;;;5.82;74.76;102073.09;5042795;28;20131;-81
2021/12/18 05:00:27;;;;;;;33.22;13.20;;;;;;;5.86;75.01;102076.53;5061907;28;20044;-81
2021/12/18 05:02:54;;;;;;;31.73;14.20;;;;;;;5.87;74.88;102086.13;5063510;28;20060;-81
2021/12/18 05:05:22;;;;;;;24.33;10.15;;;;;;;5.88;74.92;102085.25;5079862;28;20495;-81
2021/12/18 05:07:49;;;;;;;31.33;12.45;;;;;;;5.88;75.06;102078.19;5060517;28;20045;-81
2021/12/18 05:10:16;;;;;;;28.70;10.95;;;;;;;5.90;74.93;102088.66;5052319;28;20048;-81
2021/12/18 05:12:42;;;;;;;31.58;12.25;;;;;;;5.91;74.78;102089.56;5063653;28;20119;-81
2021/12/18 05:15:09;;;;;;;33.38;12.77;;;;;;;5.92;74.81;102089.50;5060523;28;20056;-81
2021/12/18 05:17:37;;;;;;;28.27;12.07;;;;;;;5.92;74.71;102099.19;5058648;28;20047;-81
2021/12/18 05:20:05;;;;;;;33.90;12.75;;;;;;;5.94;74.66;102092.13;5059420;28;20052;-81
2021/12/18 05:22:31;;;;;;;27.08;11.38;;;;;;;5.93;74.61;102090.34;5062176;28;20040;-81
2021/12/18 05:24:58;;;;;;;27.17;11.23;;;;;;;5.93;74.68;102091.22;5049745;28;20052;-81
2021/12/18 05:27:25;;;;;;;28.38;10.60;;;;;;;5.94;74.58;102100.03;5076448;28;20060;-81
2021/12/18 05:29:52;;;;;;;29.23;11.02;;;;;;;5.94;74.71;102098.25;5061769;28;20052;-81
2021/12/18 05:32:19;;;;;;;35.67;13.13;;;;;;;5.94;74.43;102100.03;5049308;28;20048;-81
2021/12/18 05:34:46;;;;;;;36.08;13.55;;;;;;;5.95;74.73;102101.75;5054382;28;20040;-81
2021/12/18 05:37:17;;;;;;;32.17;12.73;;;;;;;5.93;74.51;102100.88;5057755;28;20474;-81
2021/12/18 05:39:46;;;;;;;34.10;13.18;;;;;;;5.92;74.03;102101.81;5061536;28;20044;-81
2021/12/18 05:42:14;;;;;;;34.33;13.48;;;;;;;5.92;74.27;102097.41;5029489;28;20056;-81
2021/12/18 05:44:40;;;;;;;34.47;13.05;;;;;;;5.92;73.87;102093.91;5058962;28;20040;-81
2021/12/18 05:47:07;;;;;;;35.88;13.20;;;;;;;5.92;74.09;102093.91;5042491;28;20051;-81
2021/12/18 05:49:34;;;;;;;35.33;13.70;;;;;;;5.91;74.36;102098.31;5041693;28;20041;-81
2021/12/18 05:52:02;;;;;;;36.70;13.82;;;;;;;5.91;74.04;102100.97;5044124;28;20037;-81
2021/12/18 05:54:34;;;;;;;39.10;13.85;;;;;;;5.91;74.03;102098.31;5051308;28;20056;-81
2021/12/18 05:57:03;;;;;;;36.45;15.63;;;;;;;5.93;73.66;102099.13;5076066;28;20067;-81
2021/12/18 05:59:30;;;;;;;33.42;13.70;;;;;;;5.88;72.53;102099.28;5054219;28;20053;-81
2021/12/18 06:02:02;;;;;;;35.72;14.43;;;;;;;5.73;71.90;102098.94;5062408;28;20049;-81
2021/12/18 06:04:29;;;;;;;40.03;15.73;;;;;;;5.75;72.53;102103.22;5012515;28;20151;-81
2021/12/18 06:07:04;;;;;;;39.03;15.18;;;;;;;5.67;72.18;102102.59;5068717;28;20043;-81
2021/12/18 06:09:33;;;;;;;41.08;13.82;;;;;;;5.64;72.75;102100.06;5043349;28;20048;-81
2021/12/18 06:12:01;;;;;;;39.13;13.50;;;;;;;5.65;73.02;102099.16;5061570;28;20072;-81
2021/12/18 06:14:28;;;;;;;37.35;13.70;;;;;;;5.67;73.34;102105.22;5033010;28;20056;-81
2021/12/18 06:16:55;;;;;;;34.08;13.15;;;;;;;5.70;73.86;102099.88;5058812;28;20518;-80
2021/12/18 06:19:22;;;;;;;38.40;14.60;;;;;;;5.73;73.67;102115.59;5055151;28;20052;-81
2021/12/18 06:21:48;;;;;;;36.58;13.45;;;;;;;5.75;73.80;102112.91;5052023;28;20044;-81
2021/12/18 06:24:15;;;;;;;35.17;14.07;;;;;;;5.77;73.68;102103.16;5075236;28;20075;-81
2021/12/18 06:26:42;;;;;;;40.20;13.48;;;;;;;5.73;73.32;102106.84;5036784;28;20072;-81
2021/12/18 06:29:08;;;;;;;37.92;14.02;;;;;;;5.73;73.34;102105.06;5079084;28;20424;-81
2021/12/18 06:31:37;;;;;;;38.38;13.68;;;;;;;5.74;73.72;102104.13;5073056;28;20089;-81
2021/12/18 06:34:05;;;;;;;36.25;12.95;;;;;;;5.76;73.65;102098.81;5064794;28;20113;-81
2021/12/18 06:36:32;;;;;;;34.45;12.98;;;;;;;5.77;73.99;102100.53;5059775;28;20155;-81
2021/12/18 06:38:59;;;;;;;39.55;15.05;;;;;;;5.79;73.96;102109.25;5045717;28;20045;-81
2021/12/18 06:41:25;;;;;;;37.58;14.27;;;;;;;5.79;73.60;102104.00;5054458;28;20380;-81
2021/12/18 06:43:52;;;;;;;38.20;14.55;;;;;;;5.79;73.74;102111.91;5059560;28;20598;-80
2021/12/18 06:46:20;;;;;;;35.50;13.68;;;;;;;5.80;73.83;102111.88;5038485;28;20407;-81
2021/12/18 06:48:47;;;;;;;34.15;12.07;;;;;;;5.81;74.10;102110.94;5047258;28;20052;-81
2021/12/18 06:51:21;;;;;;;36.88;12.90;;;;;;;5.77;73.74;102119.84;5070009;28;20067;-81
2021/12/18 06:53:47;;;;;;;29.92;10.75;;;;;;;5.82;74.05;102117.06;5034669;28;20052;-81
2021/12/18 06:56:14;;;;;;;35.47;13.05;;;;;;;5.81;73.64;102121.47;5044593;28;20504;-81
2021/12/18 06:58:41;;;;;;;39.63;13.80;;;;;;;5.81;73.75;102126.75;5064647;28;20070;-81
2021/12/18 07:01:08;;;;;;;40.83;14.52;;;;;;;5.79;73.55;102123.31;5080328;28;20053;-81
2021/12/18 07:03:35;;;;;;;38.17;13.80;;;;;;;5.77;73.34;102124.25;5056788;28;20503;-81
2021/12/18 07:06:06;;;;;;;39.25;13.15;;;;;;;5.68;72.88;102133.34;5044595;28;20046;-81
2021/12/18 07:08:34;;;;;;;36.03;14.07;;;;;;;5.64;72.73;102129.06;5047100;28;20047;-80
2021/12/18 07:11:02;;;;;;;31.83;13.00;;;;;;;5.61;72.33;102135.28;5078591;28;20048;-81
2021/12/18 07:13:29;;;;;;;38.75;12.85;;;;;;;5.49;72.84;102138.28;5078470;28;20086;-80
2021/12/18 07:15:55;;;;;;;35.20;13.07;;;;;;;5.43;72.68;102139.34;5064706;28;20048;-81
2021/12/18 07:18:22;;;;;;;37.35;12.70;;;;;;;5.44;72.82;102137.56;5051207;28;20492;-79
2021/12/18 07:20:51;;;;;;;30.92;11.45;;;;;;;5.47;73.16;102141.88;5066970;28;20048;-79
2021/12/18 07:23:21;;;;;;;32.92;12.38;;;;;;;5.51;73.30;102146.16;5064866;28;20425;-79
2021/12/18 07:25:49;;;;;;;36.65;12.40;;;;;;;5.55;73.48;102150.44;5048046;28;20041;-79
2021/12/18 07:28:16;;;;;;;42.25;13.18;;;;;;;5.48;73.09;102162.06;5062079;28;20643;-79
2021/12/18 07:30:47;;;;;;;38.78;13.60;;;;;;;5.53;73.07;102157.53;5049127;28;20179;-79
2021/12/18 07:33:14;;;;;;;38.45;12.23;;;;;;;5.53;73.24;102146.97;5040288;28;20052;-79
2021/12/18 07:35:41;;;;;;;34.38;12.25;;;;;;;5.55;73.07;102147.81;5072204;28;20052;-79
2021/12/18 07:38:08;;;;;;;35.28;12.48;;;;;;;5.52;73.00;102147.88;5081534;28;20044;-79
2021/12/18 07:40:35;;;;;;;34.92;11.70;;;;;;;5.50;73.02;102147.94;5065514;28;20036;-79
2021/12/18 07:43:02;;;;;;;33.72;13.32;;;;;;;5.53;73.24;102141.72;5081277;28;20064;-79
2021/12/18 07:45:33;;;;;;;33.42;12.02;;;;;;;5.56;73.44;102146.88;5085333;28;20515;-79
2021/12/18 07:48:01;;;;;;;31.33;11.18;;;;;;;5.58;73.54;102145.06;5078808;28;20047;-79
2021/12/18 07:50:28;;;;;;;37.70;11.45;;;;;;;5.61;73.67;102134.44;5055936;28;20048;-79
2021/12/18 07:52:54;;;;;;;33.47;11.82;;;;;;;5.63;73.62;102138.75;5065073;28;20056;-79
2021/12/18 07:55:21;;;;;;;30.63;11.10;;;;;;;5.64;73.86;102132.53;5083693;28;20582;-79
2021/12/18 07:57:50;;;;;;;27.65;10.15;;;;;;;5.68;73.63;102132.47;5053847;28;20491;-79
2021/12/18 08:00:18;;;;;;;36.30;13.07;;;;;;;5.66;73.28;102129.88;5049621;28;20064;-79
2021/12/18 08:02:45;;;;;;;35.13;12.85;;;;;;;5.65;73.37;102129.03;5066690;28;20040;-79
2021/12/18 08:05:14;;;;;;;33.88;10.02;;;;;;;5.65;73.60;102129.03;5065808;28;20127;-79
2021/12/18 08:07:42;;;;;;;36.30;12.77;;;;;;;5.63;73.45;102128.19;5035834;28;20059;-79
2021/12/18 08:10:09;;;;;;;37.97;12.63;;;;;;;5.65;73.42;102130.78;5080198;28;20063;-79
2021/12/18 08:12:36;;;;;;;36.33;12.20;;;;;;;5.66;73.63;102132.50;5064948;28;20051;-79
2021/12/18 08:15:04;;;;;;;39.92;12.88;;;;;;;5.65;73.55;102133.44;5064916;28;20071;-79
2021/12/18 08:17:31;;;;;;;38.80;13.40;;;;;;;5.62;73.07;102130.88;5080471;28;20101;-79
2021/12/18 08:19:58;;;;;;;35.30;12.20;;;;;;;5.55;72.90;102134.63;5063268;28;20072;-79
2021/12/18 08:22:25;;;;;;;38.03;14.10;;;;;;;5.49;73.15;102129.53;5068258;28;20431;-79
2021/12/18 08:24:51;;;;;;;43.10;14.43;;;;;;;5.48;73.08;102133.94;5067064;28;20058;-79
2021/12/18 08:27:18;;;;;;;37.78;13.35;;;;;;;5.51;73.09;102135.63;5062448;28;20044;-79
2021/12/18 08:29:45;;;;;;;42.00;14.70;;;;;;;5.62;73.07;102138.78;5049135;28;20510;-79
2021/12/18 08:32:13;;;;;;;40.78;13.43;;;;;;;5.53;72.89;102137.28;5064449;28;20521;-79
2021/12/18 08:34:40;;;;;;;34.30;12.52;;;;;;;5.50;72.98;102132.13;5069442;28;20184;-79
2021/12/18 08:37:06;;;;;;;38.75;12.27;;;;;;;5.52;73.12;102130.31;5046142;28;20047;-79
2021/12/18 08:39:33;;;;;;;32.88;11.90;;;;;;;5.54;73.26;102136.38;5060193;28;20048;-79
2021/12/18 08:42:04;;;;;;;26.88;9.45;;;;;;;5.57;73.54;102130.16;5061105;28;20045;-79
2021/12/18 08:44:32;;;;;;;27.73;10.32;;;;;;;5.60;73.86;102138.00;5046780;28;20636;-79
2021/12/18 08:46:59;;;;;;;34.05;12.43;;;;;;;5.62;73.74;102138.78;5045518;28;20075;-79
2021/12/18 08:49:27;;;;;;;34.28;11.15;;;;;;;5.65;73.87;102142.19;5075162;28;21267;-79
2021/12/18 08:51:54;;;;;;;35.72;12.27;;;;;;;5.66;74.06;102143.06;5059335;28;20123;-79
2021/12/18 08:54:22;;;;;;;40.22;13.40;;;;;;;5.68;73.73;102137.75;5063485;28;20044;-79
2021/12/18 08:57:06;;;;;;;25.98;8.98;;;;;;;5.68;73.87;102137.75;5036801;28;20036;-79
2021/12/18 08:59:33;;;;;;;30.42;9.95;;;;;;;5.68;73.78;102129.84;5080042;28;20044;-79
2021/12/18 09:02:00;;;;;;;34.38;12.30;;;;;;;5.69;73.94;102135.03;5061462;28;20040;-79
2021/12/18 09:04:27;;;;;;;19.65;7.28;;;;;;;5.70;73.72;102139.44;5041266;28;20488;-79
2021/12/18 09:06:54;;;;;;;30.27;10.80;;;;;;;5.72;73.77;102137.56;5033224;28;20565;-79
2021/12/18 09:09:21;;;;;;;20.05;8.63;;;;;;;5.70;73.51;102134.16;5046114;28;20496;-79
2021/12/18 09:11:47;;;;;;;21.48;7.95;;;;;;;5.71;73.30;102135.88;5055693;28;20110;-79
2021/12/18 09:14:16;;;;;;;24.80;10.82;;;;;;;5.71;73.35;102135.88;5075776;28;20037;-79
2021/12/18 09:16:43;;;;;;;24.02;9.82;;;;;;;5.73;73.15;102138.47;5049185;28;20570;-79
2021/12/18 09:19:10;;;;;;;29.30;11.88;;;;;;;5.70;72.93;102139.44;5078046;28;20047;-79
2021/12/18 09:21:36;;;;;;;28.88;10.45;;;;;;;5.69;72.91;102140.31;5058322;28;20098;-79
2021/12/18 09:24:03;;;;;;;17.63;7.10;;;;;;;5.70;73.07;102134.16;5061765;28;20043;-79
2021/12/18 09:26:30;;;;;;;22.23;8.98;;;;;;;5.71;72.98;102145.56;5054989;28;20155;-79
2021/12/18 09:28:57;;;;;;;23.45;9.55;;;;;;;5.71;73.22;102143.78;5059025;28;20052;-79
2021/12/18 09:31:25;;;;;;;20.88;8.60;;;;;;;5.73;73.00;102139.31;5033401;28;20052;-79
2021/12/18 09:33:52;;;;;;;26.90;10.18;;;;;;;5.72;73.13;102137.56;5054983;28;20036;-79
2021/12/18 09:36:19;;;;;;;25.63;9.57;;;;;;;5.69;72.79;102142.94;5079177;28;20101;-79
2021/12/18 09:38:46;;;;;;;29.02;10.70;;;;;;;5.69;72.30;102134.19;5079262;28;20384;-79
2021/12/18 09:41:13;;;;;;;27.38;9.25;;;;;;;5.48;71.90;102133.09;5065439;28;20048;-79
2021/12/18 09:43:39;;;;;;;29.77;10.32;;;;;;;5.38;72.31;102133.34;5059586;28;20059;-79
2021/12/18 09:46:11;;;;;;;26.13;9.48;;;;;;;5.44;72.07;102132.28;5065282;28;20058;-79
2021/12/18 09:48:40;;;;;;;31.23;9.75;;;;;;;5.48;72.07;102128.66;5043119;28;20418;-80
2021/12/18 09:51:12;;;;;;;30.45;11.55;;;;;;;5.41;72.31;102125.34;5052272;28;20051;-79
2021/12/18 09:53:40;;;;;;;24.95;9.63;;;;;;;5.45;72.19;102128.78;5079116;28;20048;-79
2021/12/18 09:56:08;;;;;;;23.50;8.55;;;;;;;5.38;72.39;102121.94;5047772;28;20510;-79
2021/12/18 09:58:34;;;;;;;29.60;9.75;;;;;;;5.45;72.02;102118.22;5047778;28;20045;-79
2021/12/18 10:01:02;;;;;;;24.92;9.85;;;;;;;5.31;72.27;102118.63;5080706;28;20044;-79
2021/12/18 10:03:49;;;;;;;30.02;9.75;;;;;;;5.25;71.93;102115.34;5052724;28;20044;-79
2021/12/18 10:06:40;;;;;;;22.80;10.40;;;;;;;5.24;72.51;102111.84;5056827;28;20515;-79
2021/12/18 10:09:10;;;;;;;25.60;9.90;;;;;;;5.35;73.13;102114.16;5029815;28;20048;-79
2021/12/18 10:11:50;;;;;;;24.98;9.25;;;;;;;5.30;72.67;102111.66;5051699;28;20044;-79
2021/12/18 10:14:19;;;;;;;23.75;8.73;;;;;;;5.41;73.11;102106.03;4976665;28;20064;-79
2021/12/18 10:16:49;;;;;;;22.23;9.23;;;;;;;5.37;72.98;102104.44;4972144;28;20053;-79
2021/12/18 10:19:29;;;;;;;27.77;9.90;;;;;;;5.35;73.01;102101.84;4983354;28;20149;-79
2021/12/18 10:22:09;;;;;;;22.77;8.50;;;;;;;5.34;73.17;102089.59;4974984;28;20042;-79
2021/12/18 10:24:39;;;;;;;23.73;8.95;;;;;;;5.49;73.04;102087.38;4982504;28;20041;-79
2021/12/18 10:27:24;;;;;;;24.25;8.45;;;;;;;5.34;73.00;102086.94;4986002;28;20563;-79
2021/12/18 10:29:53;;;;;;;19.23;7.68;;;;;;;5.48;73.21;102090.91;4942385;28;20050;-79
2021/12/18 10:32:23;;;;;;;24.80;8.82;;;;;;;5.50;73.24;102081.19;4998391;28;20064;-79
2021/12/18 10:34:53;;;;;;;24.95;8.27;;;;;;;5.53;73.31;102075.81;4997815;28;20057;-79
2021/12/18 10:37:24;;;;;;;24.42;9.57;;;;;;;5.57;73.25;102072.16;4982991;28;20050;-79
2021/12/18 10:39:53;;;;;;;25.60;8.93;;;;;;;5.58;73.29;102066.84;5019110;28;20603;-79
2021/12/18 10:42:25;;;;;;;23.50;9.10;;;;;;;5.58;73.23;102066.00;5061255;28;20071;-79
2021/12/18 10:45:04;;;;;;;27.58;9.73;;;;;;;5.56;72.79;102060.78;5055794;28;20075;-79
2021/12/18 10:47:53;;;;;;;27.70;10.85;;;;;;;5.51;72.83;102060.06;5056044;28;20484;-79
2021/12/18 10:50:27;;;;;;;27.10;10.10;;;;;;;5.55;72.72;102053.78;5089489;28;20048;-79
2021/12/18 10:53:08;;;;;;;26.92;9.63;;;;;;;5.53;72.86;102058.25;5058379;28;20697;-79
2021/12/18 10:55:39;;;;;;;24.98;9.40;;;;;;;5.48;72.98;102054.03;5039498;28;20048;-79
2021/12/18 10:58:08;;;;;;;27.38;10.13;;;;;;;5.51;73.03;102052.16;5075045;28;20673;-79
2021/12/18 11:00:48;;;;;;;25.92;9.10;;;;;;;5.54;72.82;102054.69;5046252;28;20044;-79
2021/12/18 11:03:20;;;;;;;26.92;9.75;;;;;;;5.54;72.67;102053.81;5028930;28;20048;-79
2021/12/18 11:06:03;;;;;;;28.30;7.85;;;;;;;5.57;72.63;102048.44;5067261;28;20045;-79
2021/12/18 11:08:31;;;;;;;22.27;9.18;;;;;;;5.53;73.00;102046.84;5054888;28;20052;-79
2021/12/18 11:13:38;;;;;;;16.60;6.38;;;;;;;5.51;73.03;102038.13;5063780;28;20051;-79
2021/12/18 11:13:51;;;;;;;19.40;7.32;;;;;;;5.56;73.41;102039.69;5039842;28;20048;-79
2021/12/18 11:16:19;;;;;;;21.90;7.68;;;;;;;5.62;73.28;102026.34;5067294;28;20115;-79
2021/12/18 11:18:46;;;;;;;12.02;5.07;;;;;;;5.67;73.38;102031.41;5042210;28;20377;-79
2021/12/18 11:21:13;;;;;;;25.85;9.95;;;;;;;5.70;73.55;102020.81;5076553;28;20044;-79
2021/12/18 11:23:48;;;;;;;25.38;9.90;;;;;;;5.66;73.17;102017.38;5061558;28;20051;-79
2021/12/18 11:26:15;;;;;;;23.52;8.77;;;;;;;5.71;73.07;102008.47;5043270;28;20122;-79
2021/12/18 11:28:44;;;;;;;21.90;8.35;;;;;;;5.73;73.01;102004.03;5049367;28;20224;-79
2021/12/18 11:31:11;;;;;;;21.17;7.28;;;;;;;5.74;73.26;102006.59;5060914;28;21214;-79
2021/12/18 11:33:39;;;;;;;17.88;6.97;;;;;;;5.77;73.41;101995.09;5062492;28;20368;-79
2021/12/18 11:36:07;;;;;;;16.52;7.22;;;;;;;5.80;73.53;101989.69;5049650;28;20047;-79
2021/12/18 11:38:36;;;;;;;21.58;7.90;;;;;;;5.81;73.42;101980.91;5052280;28;20051;-79
2021/12/18 11:41:03;;;;;;;21.77;9.68;;;;;;;5.82;73.49;101987.88;5065639;28;20407;-79
2021/12/18 11:43:37;;;;;;;24.25;9.55;;;;;;;5.72;72.43;101979.41;5063334;28;20043;-79
2021/12/18 11:46:26;;;;;;;23.42;9.70;;;;;;;5.60;72.25;101979.84;5047943;28;20381;-79
2021/12/18 11:48:56;;;;;;;20.35;8.35;;;;;;;5.65;72.95;101983.19;5076852;28;20526;-79
2021/12/18 11:51:23;;;;;;;23.63;8.85;;;;;;;5.67;73.16;101968.16;5048249;28;20048;-79
2021/12/18 11:53:50;;;;;;;22.85;8.23;;;;;;;5.66;72.59;101982.28;5065588;28;20036;-79
2021/12/18 11:56:17;;;;;;;24.27;8.07;;;;;;;5.67;72.18;101978.72;5065399;28;20462;-79
2021/12/18 11:58:46;;;;;;;22.33;8.05;;;;;;;5.66;72.42;101977.00;5067797;28;20059;-79
2021/12/18 12:01:16;;;;;;;20.80;8.25;;;;;;;5.69;72.67;101982.16;5060903;28;21231;-79